sensor_id;sensor_type;location;lat;lon;timestamp;temperature;humidity
11908;DHT22;6014;47.690;9.130;2023-04-25T00:00:42;9.20;99.90
11908;DHT22;6014;47.690;9.130;2023-04-25T00:03:10;9.20;99.90
11908;DHT22;6014;47.690;9.130;2023-04-25T00:05:38;9.20;99.90
11908;DHT22;6014;47.690;9.130;2023-04-25T00:08:09;9.20;99.90
11908;DHT22;6014;47.690;9.130;2023-04-25T00:10:38;9.20;99.90
11908;DHT22;6014;47.690;9.130;2023-04-25T00:13:10;9.20;99.90
11908;DHT22;6014;47.690;9.130;2023-04-25T00:15:38;9.10;99.90
11908;DHT22;6014;47.690;9.130;2023-04-25T00:18:08;8.90;99.90
11908;DHT22;6014;47.690;9.130;2023-04-25T00:20:37;9.00;99.90
11908;DHT22;6014;47.690;9.130;2023-04-25T00:23:07;8.90;99.90
11908;DHT22;6014;47.690;9.130;2023-04-25T00:25:35;8.90;99.90
11908;DHT22;6014;47.690;9.130;2023-04-25T00:28:03;8.90;99.90
11908;DHT22;6014;47.690;9.130;2023-04-25T00:30:31;8.90;99.90
11908;DHT22;6014;47.690;9.130;2023-04-25T00:32:59;9.00;99.90
11908;DHT22;6014;47.690;9.130;2023-04-25T00:35:27;9.00;99.90
11908;DHT22;6014;47.690;9.130;2023-04-25T00:37:55;8.90;99.90
11908;DHT22;6014;47.690;9.130;2023-04-25T00:40:25;8.80;99.90
11908;DHT22;6014;47.690;9.130;2023-04-25T00:42:53;8.70;99.90
11908;DHT22;6014;47.690;9.130;2023-04-25T00:45:21;8.70;99.90
11908;DHT22;6014;47.690;9.130;2023-04-25T00:47:53;8.60;99.90
11908;DHT22;6014;47.690;9.130;2023-04-25T00:50:22;8.60;99.90
11908;DHT22;6014;47.690;9.130;2023-04-25T00:52:50;8.60;99.90
11908;DHT22;6014;47.690;9.130;2023-04-25T00:55:19;8.50;99.90
11908;DHT22;6014;47.690;9.130;2023-04-25T00:57:50;8.60;99.90
11908;DHT22;6014;47.690;9.130;2023-04-25T01:00:19;8.60;99.90
11908;DHT22;6014;47.690;9.130;2023-04-25T01:02:47;8.50;99.90
11908;DHT22;6014;47.690;9.130;2023-04-25T01:05:19;8.50;99.90
11908;DHT22;6014;47.690;9.130;2023-04-25T01:07:47;8.50;99.90
11908;DHT22;6014;47.690;9.130;2023-04-25T01:10:14;8.50;99.90
11908;DHT22;6014;47.690;9.130;2023-04-25T01:12:42;8.40;99.90
11908;DHT22;6014;47.690;9.130;2023-04-25T01:15:13;8.40;99.90
11908;DHT22;6014;47.690;9.130;2023-04-25T01:17:41;8.50;99.90
11908;DHT22;6014;47.690;9.130;2023-04-25T01:20:11;8.50;99.90
11908;DHT22;6014;47.690;9.130;2023-04-25T01:22:41;8.40;99.90
11908;DHT22;6014;47.690;9.130;2023-04-25T01:25:10;8.40;99.90
11908;DHT22;6014;47.690;9.130;2023-04-25T01:27:39;8.40;99.90
11908;DHT22;6014;47.690;9.130;2023-04-25T01:30:15;8.20;99.90
11908;DHT22;6014;47.690;9.130;2023-04-25T01:32:43;8.10;99.90
11908;DHT22;6014;47.690;9.130;2023-04-25T01:35:12;8.00;99.90
11908;DHT22;6014;47.690;9.130;2023-04-25T01:37:43;7.90;99.90
11908;DHT22;6014;47.690;9.130;2023-04-25T01:40:13;7.80;99.90
11908;DHT22;6014;47.690;9.130;2023-04-25T01:42:42;7.70;99.90
11908;DHT22;6014;47.690;9.130;2023-04-25T01:45:11;7.60;99.90
11908;DHT22;6014;47.690;9.130;2023-04-25T01:47:40;7.60;99.90
11908;DHT22;6014;47.690;9.130;2023-04-25T01:50:10;7.60;99.90
11908;DHT22;6014;47.690;9.130;2023-04-25T01:52:41;7.60;99.90
11908;DHT22;6014;47.690;9.130;2023-04-25T01:55:11;7.50;99.90
11908;DHT22;6014;47.690;9.130;2023-04-25T01:57:39;7.40;99.90
11908;DHT22;6014;47.690;9.130;2023-04-25T02:00:08;7.40;99.90
11908;DHT22;6014;47.690;9.130;2023-04-25T02:02:37;7.30;99.90
11908;DHT22;6014;47.690;9.130;2023-04-25T02:05:06;7.10;99.90
11908;DHT22;6014;47.690;9.130;2023-04-25T02:07:34;7.10;99.90
11908;DHT22;6014;47.690;9.130;2023-04-25T02:10:02;7.00;99.90
11908;DHT22;6014;47.690;9.130;2023-04-25T02:12:32;6.90;99.90
11908;DHT22;6014;47.690;9.130;2023-04-25T02:15:00;6.80;99.90
11908;DHT22;6014;47.690;9.130;2023-04-25T02:17:28;6.70;99.90
11908;DHT22;6014;47.690;9.130;2023-04-25T02:19:58;6.50;99.90
11908;DHT22;6014;47.690;9.130;2023-04-25T02:22:26;6.50;99.90
11908;DHT22;6014;47.690;9.130;2023-04-25T02:24:56;6.40;99.90
11908;DHT22;6014;47.690;9.130;2023-04-25T02:27:25;6.40;99.90
11908;DHT22;6014;47.690;9.130;2023-04-25T02:29:54;6.30;99.90
11908;DHT22;6014;47.690;9.130;2023-04-25T02:32:22;6.30;99.90
11908;DHT22;6014;47.690;9.130;2023-04-25T02:34:50;6.30;99.90
11908;DHT22;6014;47.690;9.130;2023-04-25T02:37:18;6.20;99.90
11908;DHT22;6014;47.690;9.130;2023-04-25T02:39:46;6.10;99.90
11908;DHT22;6014;47.690;9.130;2023-04-25T02:42:14;6.00;99.90
11908;DHT22;6014;47.690;9.130;2023-04-25T02:44:42;5.90;99.90
11908;DHT22;6014;47.690;9.130;2023-04-25T02:47:12;5.80;99.90
11908;DHT22;6014;47.690;9.130;2023-04-25T02:49:40;5.60;99.90
11908;DHT22;6014;47.690;9.130;2023-04-25T02:52:08;5.70;99.90
11908;DHT22;6014;47.690;9.130;2023-04-25T02:54:36;5.70;99.90
11908;DHT22;6014;47.690;9.130;2023-04-25T02:57:04;5.50;99.90
11908;DHT22;6014;47.690;9.130;2023-04-25T02:59:32;5.40;99.90
11908;DHT22;6014;47.690;9.130;2023-04-25T03:02:01;5.40;99.90
11908;DHT22;6014;47.690;9.130;2023-04-25T03:04:30;5.50;99.90
11908;DHT22;6014;47.690;9.130;2023-04-25T03:07:04;5.40;99.90
11908;DHT22;6014;47.690;9.130;2023-04-25T03:09:32;5.40;99.90
11908;DHT22;6014;47.690;9.130;2023-04-25T03:12:00;5.30;99.90
11908;DHT22;6014;47.690;9.130;2023-04-25T03:14:28;5.20;99.90
11908;DHT22;6014;47.690;9.130;2023-04-25T03:16:56;5.20;99.90
11908;DHT22;6014;47.690;9.130;2023-04-25T03:19:24;5.20;99.90
11908;DHT22;6014;47.690;9.130;2023-04-25T03:21:54;5.10;99.90
11908;DHT22;6014;47.690;9.130;2023-04-25T03:24:22;5.10;99.90
11908;DHT22;6014;47.690;9.130;2023-04-25T03:26:50;5.10;99.90
11908;DHT22;6014;47.690;9.130;2023-04-25T03:29:18;5.00;99.90
11908;DHT22;6014;47.690;9.130;2023-04-25T03:31:50;5.00;99.90
11908;DHT22;6014;47.690;9.130;2023-04-25T03:34:19;4.90;99.90
11908;DHT22;6014;47.690;9.130;2023-04-25T03:36:48;4.90;99.90
11908;DHT22;6014;47.690;9.130;2023-04-25T03:39:17;4.80;99.90
11908;DHT22;6014;47.690;9.130;2023-04-25T03:41:45;4.90;99.90
11908;DHT22;6014;47.690;9.130;2023-04-25T03:44:13;4.90;99.90
11908;DHT22;6014;47.690;9.130;2023-04-25T03:46:41;5.00;99.90
11908;DHT22;6014;47.690;9.130;2023-04-25T03:49:09;5.10;99.90
11908;DHT22;6014;47.690;9.130;2023-04-25T03:51:38;5.00;99.90
11908;DHT22;6014;47.690;9.130;2023-04-25T03:54:06;5.00;99.90
11908;DHT22;6014;47.690;9.130;2023-04-25T03:56:37;4.90;99.90
11908;DHT22;6014;47.690;9.130;2023-04-25T03:59:05;4.90;99.90
11908;DHT22;6014;47.690;9.130;2023-04-25T04:01:34;4.90;99.90
11908;DHT22;6014;47.690;9.130;2023-04-25T04:04:02;4.90;99.90
11908;DHT22;6014;47.690;9.130;2023-04-25T04:06:31;4.80;99.90
11908;DHT22;6014;47.690;9.130;2023-04-25T04:08:59;4.70;99.90
11908;DHT22;6014;47.690;9.130;2023-04-25T04:11:28;4.60;99.90
11908;DHT22;6014;47.690;9.130;2023-04-25T04:13:57;4.50;99.90
11908;DHT22;6014;47.690;9.130;2023-04-25T04:16:25;4.40;99.90
11908;DHT22;6014;47.690;9.130;2023-04-25T04:18:53;4.40;99.90
11908;DHT22;6014;47.690;9.130;2023-04-25T04:21:21;4.40;99.90
11908;DHT22;6014;47.690;9.130;2023-04-25T04:23:49;4.40;99.90
11908;DHT22;6014;47.690;9.130;2023-04-25T04:26:18;4.30;99.90
11908;DHT22;6014;47.690;9.130;2023-04-25T04:28:46;4.20;99.90
11908;DHT22;6014;47.690;9.130;2023-04-25T04:31:15;4.20;99.90
11908;DHT22;6014;47.690;9.130;2023-04-25T04:33:46;4.30;99.90
11908;DHT22;6014;47.690;9.130;2023-04-25T04:36:14;4.30;99.90
11908;DHT22;6014;47.690;9.130;2023-04-25T04:38:46;4.40;99.90
11908;DHT22;6014;47.690;9.130;2023-04-25T04:41:14;4.50;99.90
11908;DHT22;6014;47.690;9.130;2023-04-25T04:43:43;4.50;99.90
11908;DHT22;6014;47.690;9.130;2023-04-25T04:46:12;4.70;99.90
11908;DHT22;6014;47.690;9.130;2023-04-25T04:48:43;4.80;99.90
11908;DHT22;6014;47.690;9.130;2023-04-25T04:51:11;4.80;99.90
11908;DHT22;6014;47.690;9.130;2023-04-25T04:53:39;4.90;99.90
11908;DHT22;6014;47.690;9.130;2023-04-25T04:56:10;5.20;99.90
11908;DHT22;6014;47.690;9.130;2023-04-25T04:58:39;5.50;99.90
11908;DHT22;6014;47.690;9.130;2023-04-25T05:01:07;5.60;99.90
11908;DHT22;6014;47.690;9.130;2023-04-25T05:03:35;5.70;99.90
11908;DHT22;6014;47.690;9.130;2023-04-25T05:06:06;5.80;99.90
11908;DHT22;6014;47.690;9.130;2023-04-25T05:08:36;6.10;99.90
11908;DHT22;6014;47.690;9.130;2023-04-25T05:11:04;5.90;99.90
11908;DHT22;6014;47.690;9.130;2023-04-25T05:13:32;5.90;99.90
11908;DHT22;6014;47.690;9.130;2023-04-25T05:16:00;6.00;99.90
11908;DHT22;6014;47.690;9.130;2023-04-25T05:18:30;6.20;99.90
11908;DHT22;6014;47.690;9.130;2023-04-25T05:20:59;6.20;99.90
11908;DHT22;6014;47.690;9.130;2023-04-25T05:23:28;6.20;99.90
11908;DHT22;6014;47.690;9.130;2023-04-25T05:26:01;6.30;99.90
11908;DHT22;6014;47.690;9.130;2023-04-25T05:28:40;6.50;99.90
11908;DHT22;6014;47.690;9.130;2023-04-25T05:31:09;6.60;99.90
11908;DHT22;6014;47.690;9.130;2023-04-25T05:33:37;6.70;99.90
11908;DHT22;6014;47.690;9.130;2023-04-25T05:36:06;6.80;99.90
11908;DHT22;6014;47.690;9.130;2023-04-25T05:38:36;6.70;99.90
11908;DHT22;6014;47.690;9.130;2023-04-25T05:41:04;6.80;99.90
11908;DHT22;6014;47.690;9.130;2023-04-25T05:43:43;7.00;99.90
11908;DHT22;6014;47.690;9.130;2023-04-25T05:46:14;6.90;99.90
11908;DHT22;6014;47.690;9.130;2023-04-25T05:48:42;7.10;99.90
11908;DHT22;6014;47.690;9.130;2023-04-25T05:51:10;7.10;99.90
11908;DHT22;6014;47.690;9.130;2023-04-25T05:53:40;7.10;99.90
11908;DHT22;6014;47.690;9.130;2023-04-25T05:56:08;7.20;99.90
11908;DHT22;6014;47.690;9.130;2023-04-25T05:58:36;7.30;99.90
11908;DHT22;6014;47.690;9.130;2023-04-25T06:01:04;7.30;99.90
11908;DHT22;6014;47.690;9.130;2023-04-25T06:03:32;7.40;99.90
11908;DHT22;6014;47.690;9.130;2023-04-25T06:06:00;7.60;99.90
11908;DHT22;6014;47.690;9.130;2023-04-25T06:08:29;7.90;99.90
11908;DHT22;6014;47.690;9.130;2023-04-25T06:10:58;8.10;99.90
11908;DHT22;6014;47.690;9.130;2023-04-25T06:13:26;8.30;99.90
11908;DHT22;6014;47.690;9.130;2023-04-25T06:15:54;8.50;99.90
11908;DHT22;6014;47.690;9.130;2023-04-25T06:18:22;8.70;99.90
11908;DHT22;6014;47.690;9.130;2023-04-25T06:20:50;8.80;99.90
11908;DHT22;6014;47.690;9.130;2023-04-25T06:23:18;8.80;99.90
11908;DHT22;6014;47.690;9.130;2023-04-25T06:25:46;8.80;99.90
11908;DHT22;6014;47.690;9.130;2023-04-25T06:28:15;8.80;99.90
11908;DHT22;6014;47.690;9.130;2023-04-25T06:30:44;9.00;99.90
11908;DHT22;6014;47.690;9.130;2023-04-25T06:33:12;9.40;99.90
11908;DHT22;6014;47.690;9.130;2023-04-25T06:35:40;9.80;99.90
11908;DHT22;6014;47.690;9.130;2023-04-25T06:38:08;10.20;99.90
11908;DHT22;6014;47.690;9.130;2023-04-25T06:40:37;10.30;99.90
11908;DHT22;6014;47.690;9.130;2023-04-25T06:43:05;10.20;99.90
11908;DHT22;6014;47.690;9.130;2023-04-25T06:45:34;10.30;99.90
11908;DHT22;6014;47.690;9.130;2023-04-25T06:48:03;10.30;99.90
11908;DHT22;6014;47.690;9.130;2023-04-25T06:50:31;10.10;99.90
11908;DHT22;6014;47.690;9.130;2023-04-25T06:52:59;10.00;99.90
11908;DHT22;6014;47.690;9.130;2023-04-25T06:55:28;10.10;99.90
11908;DHT22;6014;47.690;9.130;2023-04-25T06:57:56;10.10;99.90
11908;DHT22;6014;47.690;9.130;2023-04-25T07:00:25;10.10;99.90
11908;DHT22;6014;47.690;9.130;2023-04-25T07:02:54;10.10;99.90
11908;DHT22;6014;47.690;9.130;2023-04-25T07:05:22;10.10;99.90
11908;DHT22;6014;47.690;9.130;2023-04-25T07:07:51;10.10;99.90
11908;DHT22;6014;47.690;9.130;2023-04-25T07:10:19;10.00;99.90
11908;DHT22;6014;47.690;9.130;2023-04-25T07:12:48;9.90;99.90
11908;DHT22;6014;47.690;9.130;2023-04-25T07:15:16;9.80;99.90
11908;DHT22;6014;47.690;9.130;2023-04-25T07:17:44;9.50;99.90
11908;DHT22;6014;47.690;9.130;2023-04-25T07:20:13;9.30;99.90
11908;DHT22;6014;47.690;9.130;2023-04-25T07:22:42;9.10;99.90
11908;DHT22;6014;47.690;9.130;2023-04-25T07:25:10;9.00;99.90
11908;DHT22;6014;47.690;9.130;2023-04-25T07:27:39;8.80;99.90
11908;DHT22;6014;47.690;9.130;2023-04-25T07:30:08;8.50;99.90
11908;DHT22;6014;47.690;9.130;2023-04-25T07:32:39;8.00;99.90
11908;DHT22;6014;47.690;9.130;2023-04-25T07:35:08;7.60;99.90
11908;DHT22;6014;47.690;9.130;2023-04-25T07:37:39;7.50;99.90
11908;DHT22;6014;47.690;9.130;2023-04-25T07:40:09;7.30;99.90
11908;DHT22;6014;47.690;9.130;2023-04-25T07:42:37;7.20;99.90
11908;DHT22;6014;47.690;9.130;2023-04-25T07:45:06;7.10;99.90
11908;DHT22;6014;47.690;9.130;2023-04-25T07:47:34;7.10;99.90
11908;DHT22;6014;47.690;9.130;2023-04-25T07:50:03;7.00;99.90
11908;DHT22;6014;47.690;9.130;2023-04-25T07:52:31;7.10;99.90
11908;DHT22;6014;47.690;9.130;2023-04-25T07:55:00;7.00;99.90
11908;DHT22;6014;47.690;9.130;2023-04-25T07:57:29;7.10;99.90
11908;DHT22;6014;47.690;9.130;2023-04-25T08:00:00;7.20;99.90
11908;DHT22;6014;47.690;9.130;2023-04-25T08:02:28;7.10;99.90
11908;DHT22;6014;47.690;9.130;2023-04-25T08:04:56;7.00;99.90
11908;DHT22;6014;47.690;9.130;2023-04-25T08:07:25;7.10;99.90
11908;DHT22;6014;47.690;9.130;2023-04-25T08:09:54;7.00;99.90
11908;DHT22;6014;47.690;9.130;2023-04-25T08:12:24;7.00;99.90
11908;DHT22;6014;47.690;9.130;2023-04-25T08:14:58;6.90;99.90
11908;DHT22;6014;47.690;9.130;2023-04-25T08:17:26;7.00;99.90
11908;DHT22;6014;47.690;9.130;2023-04-25T08:19:54;6.90;99.90
11908;DHT22;6014;47.690;9.130;2023-04-25T08:22:23;6.90;99.90
11908;DHT22;6014;47.690;9.130;2023-04-25T08:24:51;6.90;99.90
11908;DHT22;6014;47.690;9.130;2023-04-25T08:27:19;6.80;99.90
11908;DHT22;6014;47.690;9.130;2023-04-25T08:29:49;6.80;99.90
11908;DHT22;6014;47.690;9.130;2023-04-25T08:32:18;6.80;99.90
11908;DHT22;6014;47.690;9.130;2023-04-25T08:34:47;6.90;99.90
11908;DHT22;6014;47.690;9.130;2023-04-25T08:37:15;6.90;99.90
11908;DHT22;6014;47.690;9.130;2023-04-25T08:39:46;6.90;99.90
11908;DHT22;6014;47.690;9.130;2023-04-25T08:42:15;7.00;99.90
11908;DHT22;6014;47.690;9.130;2023-04-25T08:44:53;7.20;99.90
11908;DHT22;6014;47.690;9.130;2023-04-25T08:47:22;7.10;99.90
11908;DHT22;6014;47.690;9.130;2023-04-25T08:49:53;7.20;99.90
11908;DHT22;6014;47.690;9.130;2023-04-25T08:52:22;7.30;99.90
11908;DHT22;6014;47.690;9.130;2023-04-25T08:54:51;7.10;99.90
11908;DHT22;6014;47.690;9.130;2023-04-25T08:57:31;7.20;99.90
11908;DHT22;6014;47.690;9.130;2023-04-25T09:00:01;7.20;99.90
11908;DHT22;6014;47.690;9.130;2023-04-25T09:02:29;7.20;99.90
11908;DHT22;6014;47.690;9.130;2023-04-25T09:04:58;7.20;99.90
11908;DHT22;6014;47.690;9.130;2023-04-25T09:07:26;7.20;99.90
11908;DHT22;6014;47.690;9.130;2023-04-25T09:09:55;7.20;99.90
11908;DHT22;6014;47.690;9.130;2023-04-25T09:12:23;7.30;99.90
11908;DHT22;6014;47.690;9.130;2023-04-25T09:15:08;7.50;99.90
11908;DHT22;6014;47.690;9.130;2023-04-25T09:17:36;7.60;99.90
11908;DHT22;6014;47.690;9.130;2023-04-25T09:20:09;7.80;99.90
11908;DHT22;6014;47.690;9.130;2023-04-25T09:22:38;7.90;99.90
11908;DHT22;6014;47.690;9.130;2023-04-25T09:25:10;8.10;99.90
11908;DHT22;6014;47.690;9.130;2023-04-25T09:27:49;8.20;99.90
11908;DHT22;6014;47.690;9.130;2023-04-25T09:30:28;8.40;99.90
11908;DHT22;6014;47.690;9.130;2023-04-25T09:32:57;8.70;99.90
11908;DHT22;6014;47.690;9.130;2023-04-25T09:35:25;8.60;99.90
11908;DHT22;6014;47.690;9.130;2023-04-25T09:37:54;8.60;99.90
11908;DHT22;6014;47.690;9.130;2023-04-25T09:40:22;8.50;99.90
11908;DHT22;6014;47.690;9.130;2023-04-25T09:42:50;8.60;99.90
11908;DHT22;6014;47.690;9.130;2023-04-25T09:45:19;8.80;99.90
11908;DHT22;6014;47.690;9.130;2023-04-25T09:47:47;9.00;99.90
11908;DHT22;6014;47.690;9.130;2023-04-25T09:50:30;9.10;99.90
11908;DHT22;6014;47.690;9.130;2023-04-25T09:53:04;9.20;99.90
11908;DHT22;6014;47.690;9.130;2023-04-25T09:55:34;9.30;99.90
11908;DHT22;6014;47.690;9.130;2023-04-25T09:58:04;9.10;99.90
11908;DHT22;6014;47.690;9.130;2023-04-25T10:00:34;9.10;99.90
11908;DHT22;6014;47.690;9.130;2023-04-25T10:03:03;9.40;99.90
11908;DHT22;6014;47.690;9.130;2023-04-25T10:05:34;9.70;99.90
11908;DHT22;6014;47.690;9.130;2023-04-25T10:08:04;10.10;99.90
11908;DHT22;6014;47.690;9.130;2023-04-25T10:10:34;9.90;99.90
11908;DHT22;6014;47.690;9.130;2023-04-25T10:13:04;9.70;99.90
11908;DHT22;6014;47.690;9.130;2023-04-25T10:15:36;9.80;99.90
11908;DHT22;6014;47.690;9.130;2023-04-25T10:18:06;10.00;99.90
11908;DHT22;6014;47.690;9.130;2023-04-25T10:20:37;10.30;99.90
11908;DHT22;6014;47.690;9.130;2023-04-25T10:23:10;10.60;99.90
11908;DHT22;6014;47.690;9.130;2023-04-25T10:25:41;10.90;99.90
11908;DHT22;6014;47.690;9.130;2023-04-25T10:28:09;10.60;99.90
11908;DHT22;6014;47.690;9.130;2023-04-25T10:30:57;10.50;99.90
11908;DHT22;6014;47.690;9.130;2023-04-25T10:33:35;10.60;99.90
11908;DHT22;6014;47.690;9.130;2023-04-25T10:36:10;10.70;99.90
11908;DHT22;6014;47.690;9.130;2023-04-25T10:38:39;10.70;99.90
11908;DHT22;6014;47.690;9.130;2023-04-25T10:41:08;10.50;99.90
11908;DHT22;6014;47.690;9.130;2023-04-25T10:43:37;10.50;99.90
11908;DHT22;6014;47.690;9.130;2023-04-25T10:46:19;10.70;99.90
11908;DHT22;6014;47.690;9.130;2023-04-25T10:48:50;10.60;99.90
11908;DHT22;6014;47.690;9.130;2023-04-25T10:51:21;10.40;99.90
11908;DHT22;6014;47.690;9.130;2023-04-25T10:54:00;10.20;99.90
11908;DHT22;6014;47.690;9.130;2023-04-25T10:56:29;10.30;99.90
11908;DHT22;6014;47.690;9.130;2023-04-25T10:59:06;10.50;99.90
11908;DHT22;6014;47.690;9.130;2023-04-25T11:01:40;10.50;99.90
11908;DHT22;6014;47.690;9.130;2023-04-25T11:04:21;10.30;99.90
11908;DHT22;6014;47.690;9.130;2023-04-25T11:07:04;10.40;99.90
11908;DHT22;6014;47.690;9.130;2023-04-25T11:09:37;10.30;99.90
11908;DHT22;6014;47.690;9.130;2023-04-25T11:12:08;10.60;99.90
11908;DHT22;6014;47.690;9.130;2023-04-25T11:14:38;11.00;99.90
11908;DHT22;6014;47.690;9.130;2023-04-25T11:17:12;11.90;99.90
11908;DHT22;6014;47.690;9.130;2023-04-25T11:19:41;12.00;99.90
11908;DHT22;6014;47.690;9.130;2023-04-25T11:22:14;11.70;99.90
11908;DHT22;6014;47.690;9.130;2023-04-25T11:24:42;11.30;99.90
11908;DHT22;6014;47.690;9.130;2023-04-25T11:27:10;11.10;99.90
11908;DHT22;6014;47.690;9.130;2023-04-25T11:29:38;11.40;99.90
11908;DHT22;6014;47.690;9.130;2023-04-25T11:32:06;12.40;99.90
11908;DHT22;6014;47.690;9.130;2023-04-25T11:34:36;13.40;99.90
11908;DHT22;6014;47.690;9.130;2023-04-25T11:37:04;13.90;99.90
11908;DHT22;6014;47.690;9.130;2023-04-25T11:39:32;13.80;99.90
11908;DHT22;6014;47.690;9.130;2023-04-25T11:42:01;14.20;99.90
11908;DHT22;6014;47.690;9.130;2023-04-25T11:44:52;14.70;98.20
11908;DHT22;6014;47.690;9.130;2023-04-25T11:47:20;15.40;79.40
11908;DHT22;6014;47.690;9.130;2023-04-25T11:49:53;15.10;78.50
11908;DHT22;6014;47.690;9.130;2023-04-25T11:52:21;14.00;80.20
11908;DHT22;6014;47.690;9.130;2023-04-25T11:54:49;12.90;91.40
11908;DHT22;6014;47.690;9.130;2023-04-25T11:57:19;12.60;95.50
11908;DHT22;6014;47.690;9.130;2023-04-25T12:00:08;12.60;99.90
11908;DHT22;6014;47.690;9.130;2023-04-25T12:02:41;12.90;97.10
11908;DHT22;6014;47.690;9.130;2023-04-25T12:05:15;12.80;95.30
11908;DHT22;6014;47.690;9.130;2023-04-25T12:07:47;12.20;99.90
11908;DHT22;6014;47.690;9.130;2023-04-25T12:10:19;11.90;99.90
11908;DHT22;6014;47.690;9.130;2023-04-25T12:12:48;11.40;99.90
11908;DHT22;6014;47.690;9.130;2023-04-25T12:15:24;10.40;99.90
11908;DHT22;6014;47.690;9.130;2023-04-25T12:17:54;9.70;99.90
11908;DHT22;6014;47.690;9.130;2023-04-25T12:20:25;9.50;99.90
11908;DHT22;6014;47.690;9.130;2023-04-25T12:22:53;9.50;99.90
11908;DHT22;6014;47.690;9.130;2023-04-25T12:25:35;9.50;99.90
11908;DHT22;6014;47.690;9.130;2023-04-25T12:28:12;9.20;99.90
11908;DHT22;6014;47.690;9.130;2023-04-25T12:30:57;8.90;99.90
11908;DHT22;6014;47.690;9.130;2023-04-25T12:33:28;8.90;99.90
11908;DHT22;6014;47.690;9.130;2023-04-25T12:35:57;9.00;99.90
11908;DHT22;6014;47.690;9.130;2023-04-25T12:38:27;10.40;99.90
11908;DHT22;6014;47.690;9.130;2023-04-25T12:40:56;11.70;99.90
11908;DHT22;6014;47.690;9.130;2023-04-25T12:43:24;11.80;99.90
11908;DHT22;6014;47.690;9.130;2023-04-25T12:45:54;12.90;99.90
11908;DHT22;6014;47.690;9.130;2023-04-25T12:48:22;13.40;99.90
11908;DHT22;6014;47.690;9.130;2023-04-25T12:50:51;13.90;99.90
11908;DHT22;6014;47.690;9.130;2023-04-25T12:53:27;14.40;99.90
11908;DHT22;6014;47.690;9.130;2023-04-25T12:55:55;14.70;99.90
11908;DHT22;6014;47.690;9.130;2023-04-25T12:58:23;14.90;99.90
11908;DHT22;6014;47.690;9.130;2023-04-25T13:00:51;15.10;99.90
11908;DHT22;6014;47.690;9.130;2023-04-25T13:03:21;15.40;99.90
11908;DHT22;6014;47.690;9.130;2023-04-25T13:05:50;15.50;99.00
11908;DHT22;6014;47.690;9.130;2023-04-25T13:08:19;14.30;99.90
11908;DHT22;6014;47.690;9.130;2023-04-25T13:10:48;13.50;99.90
11908;DHT22;6014;47.690;9.130;2023-04-25T13:13:16;13.80;99.90
11908;DHT22;6014;47.690;9.130;2023-04-25T13:15:44;13.30;99.90
11908;DHT22;6014;47.690;9.130;2023-04-25T13:18:15;13.30;99.90
11908;DHT22;6014;47.690;9.130;2023-04-25T13:20:43;13.20;99.90
11908;DHT22;6014;47.690;9.130;2023-04-25T13:23:11;13.30;99.90
11908;DHT22;6014;47.690;9.130;2023-04-25T13:25:39;13.20;99.90
11908;DHT22;6014;47.690;9.130;2023-04-25T13:28:09;14.00;99.90
11908;DHT22;6014;47.690;9.130;2023-04-25T13:30:38;13.60;92.50
11908;DHT22;6014;47.690;9.130;2023-04-25T13:33:06;13.80;99.60
11908;DHT22;6014;47.690;9.130;2023-04-25T13:35:36;13.60;89.20
11908;DHT22;6014;47.690;9.130;2023-04-25T13:38:04;14.10;90.50
11908;DHT22;6014;47.690;9.130;2023-04-25T13:40:32;14.70;88.80
11908;DHT22;6014;47.690;9.130;2023-04-25T13:43:01;15.20;89.30
11908;DHT22;6014;47.690;9.130;2023-04-25T13:45:31;15.60;76.00
11908;DHT22;6014;47.690;9.130;2023-04-25T13:47:59;15.80;72.80
11908;DHT22;6014;47.690;9.130;2023-04-25T13:50:27;15.60;63.60
11908;DHT22;6014;47.690;9.130;2023-04-25T13:52:55;16.10;64.60
11908;DHT22;6014;47.690;9.130;2023-04-25T13:55:23;15.50;56.40
11908;DHT22;6014;47.690;9.130;2023-04-25T13:57:52;15.60;56.20
11908;DHT22;6014;47.690;9.130;2023-04-25T14:00:21;15.40;54.40
11908;DHT22;6014;47.690;9.130;2023-04-25T14:02:50;16.40;55.80
11908;DHT22;6014;47.690;9.130;2023-04-25T14:05:19;17.00;51.40
11908;DHT22;6014;47.690;9.130;2023-04-25T14:07:47;16.80;50.20
11908;DHT22;6014;47.690;9.130;2023-04-25T14:10:15;16.10;46.30
11908;DHT22;6014;47.690;9.130;2023-04-25T14:12:45;14.70;52.30
11908;DHT22;6014;47.690;9.130;2023-04-25T14:15:13;14.20;68.20
11908;DHT22;6014;47.690;9.130;2023-04-25T14:17:41;13.30;60.90
11908;DHT22;6014;47.690;9.130;2023-04-25T14:20:11;12.80;69.60
11908;DHT22;6014;47.690;9.130;2023-04-25T14:22:39;12.50;98.30
11908;DHT22;6014;47.690;9.130;2023-04-25T14:25:10;12.10;99.90
11908;DHT22;6014;47.690;9.130;2023-04-25T14:27:38;11.80;99.90
11908;DHT22;6014;47.690;9.130;2023-04-25T14:30:07;11.40;99.90
11908;DHT22;6014;47.690;9.130;2023-04-25T14:32:36;10.90;99.90
11908;DHT22;6014;47.690;9.130;2023-04-25T14:35:05;10.60;99.90
11908;DHT22;6014;47.690;9.130;2023-04-25T14:37:35;10.40;99.90
11908;DHT22;6014;47.690;9.130;2023-04-25T14:40:03;10.20;99.90
11908;DHT22;6014;47.690;9.130;2023-04-25T14:42:33;10.00;99.90
11908;DHT22;6014;47.690;9.130;2023-04-25T14:45:01;10.00;99.90
11908;DHT22;6014;47.690;9.130;2023-04-25T14:47:29;10.20;99.90
11908;DHT22;6014;47.690;9.130;2023-04-25T14:49:58;10.40;99.90
11908;DHT22;6014;47.690;9.130;2023-04-25T14:52:30;10.50;99.90
11908;DHT22;6014;47.690;9.130;2023-04-25T14:55:00;11.20;99.90
11908;DHT22;6014;47.690;9.130;2023-04-25T14:57:31;11.50;99.90
11908;DHT22;6014;47.690;9.130;2023-04-25T14:59:59;11.40;99.90
11908;DHT22;6014;47.690;9.130;2023-04-25T15:02:28;11.30;99.90
11908;DHT22;6014;47.690;9.130;2023-04-25T15:04:56;11.20;99.90
11908;DHT22;6014;47.690;9.130;2023-04-25T15:07:24;11.20;99.90
11908;DHT22;6014;47.690;9.130;2023-04-25T15:09:52;11.00;99.90
11908;DHT22;6014;47.690;9.130;2023-04-25T15:12:23;10.90;99.90
11908;DHT22;6014;47.690;9.130;2023-04-25T15:14:52;11.20;99.90
11908;DHT22;6014;47.690;9.130;2023-04-25T15:17:20;12.20;99.90
11908;DHT22;6014;47.690;9.130;2023-04-25T15:19:48;13.00;99.90
11908;DHT22;6014;47.690;9.130;2023-04-25T15:22:17;13.80;99.90
11908;DHT22;6014;47.690;9.130;2023-04-25T15:24:45;14.00;99.90
11908;DHT22;6014;47.690;9.130;2023-04-25T15:27:13;14.20;96.40
11908;DHT22;6014;47.690;9.130;2023-04-25T15:29:42;14.10;90.40
11908;DHT22;6014;47.690;9.130;2023-04-25T15:32:10;14.00;90.60
11908;DHT22;6014;47.690;9.130;2023-04-25T15:34:39;14.30;89.50
11908;DHT22;6014;47.690;9.130;2023-04-25T15:37:07;14.30;89.80
11908;DHT22;6014;47.690;9.130;2023-04-25T15:39:35;14.20;88.40
11908;DHT22;6014;47.690;9.130;2023-04-25T15:42:03;13.70;86.70
11908;DHT22;6014;47.690;9.130;2023-04-25T15:44:31;13.90;91.30
11908;DHT22;6014;47.690;9.130;2023-04-25T15:47:01;13.60;91.20
11908;DHT22;6014;47.690;9.130;2023-04-25T15:49:29;13.20;94.70
11908;DHT22;6014;47.690;9.130;2023-04-25T15:51:57;12.60;97.10
11908;DHT22;6014;47.690;9.130;2023-04-25T15:54:25;12.10;99.90
11908;DHT22;6014;47.690;9.130;2023-04-25T15:56:55;11.70;99.90
11908;DHT22;6014;47.690;9.130;2023-04-25T15:59:23;11.60;99.90
11908;DHT22;6014;47.690;9.130;2023-04-25T16:01:51;11.40;99.90
11908;DHT22;6014;47.690;9.130;2023-04-25T16:04:20;11.20;99.90
11908;DHT22;6014;47.690;9.130;2023-04-25T16:06:51;11.30;99.90
11908;DHT22;6014;47.690;9.130;2023-04-25T16:09:19;11.30;99.90